sensor_id;sensor_type;location;lat;lon;timestamp;P1;durP1;ratioP1;P2;durP2;ratioP2
61391;SDS011;47261;52.892;5.738;2023-01-04T00:01:06;5.20;;;1.20;;
61391;SDS011;47261;52.892;5.738;2023-01-04T00:03:34;7.90;;;1.80;;
61391;SDS011;47261;52.892;5.738;2023-01-04T00:06:02;5.68;;;1.23;;
61391;SDS011;47261;52.892;5.738;2023-01-04T00:08:29;8.15;;;2.00;;
61391;SDS011;47261;52.892;5.738;2023-01-04T00:13:28;4.87;;;1.60;;
61391;SDS011;47261;52.892;5.738;2023-01-04T00:15:54;6.10;;;2.00;;
61391;SDS011;47261;52.892;5.738;2023-01-04T00:18:20;9.38;;;2.20;;
61391;SDS011;47261;52.892;5.738;2023-01-04T00:20:46;7.38;;;1.83;;
61391;SDS011;47261;52.892;5.738;2023-01-04T00:23:12;5.20;;;1.20;;
61391;SDS011;47261;52.892;5.738;2023-01-04T00:25:38;6.97;;;2.00;;
61391;SDS011;47261;52.892;5.738;2023-01-04T00:28:03;7.33;;;1.60;;
61391;SDS011;47261;52.892;5.738;2023-01-04T00:30:29;5.57;;;1.55;;
61391;SDS011;47261;52.892;5.738;2023-01-04T00:32:58;9.10;;;2.00;;
61391;SDS011;47261;52.892;5.738;2023-01-04T00:35:24;5.63;;;1.15;;
61391;SDS011;47261;52.892;5.738;2023-01-04T00:37:50;8.90;;;1.65;;
61391;SDS011;47261;52.892;5.738;2023-01-04T00:40:16;4.70;;;1.60;;
61391;SDS011;47261;52.892;5.738;2023-01-04T00:42:41;7.68;;;1.73;;
61391;SDS011;47261;52.892;5.738;2023-01-04T00:45:07;7.90;;;1.57;;
61391;SDS011;47261;52.892;5.738;2023-01-04T00:47:33;4.20;;;1.35;;
61391;SDS011;47261;52.892;5.738;2023-01-04T00:49:58;6.20;;;1.80;;
61391;SDS011;47261;52.892;5.738;2023-01-04T00:52:24;8.15;;;1.40;;
61391;SDS011;47261;52.892;5.738;2023-01-04T00:54:50;6.27;;;1.43;;
61391;SDS011;47261;52.892;5.738;2023-01-04T00:57:15;6.50;;;1.30;;
61391;SDS011;47261;52.892;5.738;2023-01-04T00:59:41;5.90;;;1.30;;
61391;SDS011;47261;52.892;5.738;2023-01-04T01:02:07;6.93;;;1.33;;
61391;SDS011;47261;52.892;5.738;2023-01-04T01:04:32;4.82;;;1.10;;
61391;SDS011;47261;52.892;5.738;2023-01-04T01:06:59;5.35;;;1.05;;
61391;SDS011;47261;52.892;5.738;2023-01-04T01:09:25;4.33;;;1.20;;
61391;SDS011;47261;52.892;5.738;2023-01-04T01:11:51;9.27;;;1.10;;
61391;SDS011;47261;52.892;5.738;2023-01-04T01:14:18;5.65;;;1.30;;
61391;SDS011;47261;52.892;5.738;2023-01-04T01:16:46;5.50;;;1.10;;
61391;SDS011;47261;52.892;5.738;2023-01-04T01:19:12;4.30;;;0.85;;
61391;SDS011;47261;52.892;5.738;2023-01-04T01:21:37;3.08;;;1.00;;
61391;SDS011;47261;52.892;5.738;2023-01-04T01:24:03;10.67;;;1.60;;
61391;SDS011;47261;52.892;5.738;2023-01-04T01:26:29;4.70;;;1.00;;
61391;SDS011;47261;52.892;5.738;2023-01-04T01:28:55;5.38;;;1.33;;
61391;SDS011;47261;52.892;5.738;2023-01-04T01:31:23;3.88;;;0.90;;
61391;SDS011;47261;52.892;5.738;2023-01-04T01:33:51;4.17;;;1.37;;
61391;SDS011;47261;52.892;5.738;2023-01-04T01:36:19;5.20;;;1.00;;
61391;SDS011;47261;52.892;5.738;2023-01-04T01:38:47;3.95;;;1.20;;
61391;SDS011;47261;52.892;5.738;2023-01-04T01:41:17;3.33;;;0.75;;
61391;SDS011;47261;52.892;5.738;2023-01-04T01:49:17;2.35;;;0.68;;
61391;SDS011;47261;52.892;5.738;2023-01-04T01:51:50;3.50;;;0.95;;
61391;SDS011;47261;52.892;5.738;2023-01-04T01:54:19;3.13;;;0.70;;
61391;SDS011;47261;52.892;5.738;2023-01-04T01:56:50;1.98;;;0.60;;
61391;SDS011;47261;52.892;5.738;2023-01-04T01:59:18;3.97;;;0.90;;
61391;SDS011;47261;52.892;5.738;2023-01-04T02:01:45;3.25;;;0.80;;
61391;SDS011;47261;52.892;5.738;2023-01-04T02:04:11;1.88;;;0.65;;
61391;SDS011;47261;52.892;5.738;2023-01-04T02:06:40;2.47;;;0.50;;
61391;SDS011;47261;52.892;5.738;2023-01-04T02:09:10;1.98;;;0.50;;
61391;SDS011;47261;52.892;5.738;2023-01-04T02:11:37;2.70;;;0.57;;
61391;SDS011;47261;52.892;5.738;2023-01-04T02:14:02;1.87;;;0.43;;
61391;SDS011;47261;52.892;5.738;2023-01-04T02:17:07;3.60;;;0.50;;
61391;SDS011;47261;52.892;5.738;2023-01-04T02:24:58;4.25;;;0.65;;
61391;SDS011;47261;52.892;5.738;2023-01-04T02:30:51;1.20;;;0.47;;
61391;SDS011;47261;52.892;5.738;2023-01-04T02:38:52;1.90;;;0.60;;
61391;SDS011;47261;52.892;5.738;2023-01-04T02:43:55;1.73;;;0.55;;
61391;SDS011;47261;52.892;5.738;2023-01-04T02:46:52;3.25;;;0.73;;
61391;SDS011;47261;52.892;5.738;2023-01-04T02:49:34;2.53;;;0.90;;
61391;SDS011;47261;52.892;5.738;2023-01-04T02:52:18;2.90;;;0.88;;
61391;SDS011;47261;52.892;5.738;2023-01-04T02:54:46;2.60;;;0.98;;
61391;SDS011;47261;52.892;5.738;2023-01-04T03:00:17;4.43;;;1.30;;
61391;SDS011;47261;52.892;5.738;2023-01-04T03:06:09;3.53;;;1.25;;
61391;SDS011;47261;52.892;5.738;2023-01-04T03:11:18;6.47;;;2.50;;
61391;SDS011;47261;52.892;5.738;2023-01-04T03:14:08;6.80;;;2.63;;
61391;SDS011;47261;52.892;5.738;2023-01-04T03:16:38;5.50;;;2.63;;
61391;SDS011;47261;52.892;5.738;2023-01-04T03:19:05;5.60;;;2.70;;
61391;SDS011;47261;52.892;5.738;2023-01-04T03:21:35;8.70;;;4.28;;
61391;SDS011;47261;52.892;5.738;2023-01-04T03:24:04;5.80;;;3.08;;
61391;SDS011;47261;52.892;5.738;2023-01-04T03:26:55;8.93;;;3.72;;
61391;SDS011;47261;52.892;5.738;2023-01-04T03:30:03;6.13;;;3.40;;
61391;SDS011;47261;52.892;5.738;2023-01-04T03:33:06;6.45;;;3.50;;
61391;SDS011;47261;52.892;5.738;2023-01-04T03:35:58;6.82;;;3.50;;
61391;SDS011;47261;52.892;5.738;2023-01-04T03:41:19;6.80;;;2.80;;
61391;SDS011;47261;52.892;5.738;2023-01-04T03:47:00;5.45;;;2.90;;
61391;SDS011;47261;52.892;5.738;2023-01-04T03:49:54;7.38;;;3.25;;
61391;SDS011;47261;52.892;5.738;2023-01-04T03:52:30;5.93;;;3.17;;
61391;SDS011;47261;52.892;5.738;2023-01-04T03:54:58;6.47;;;3.40;;
61391;SDS011;47261;52.892;5.738;2023-01-04T03:57:26;8.03;;;3.80;;
61391;SDS011;47261;52.892;5.738;2023-01-04T04:00:04;7.78;;;3.90;;
61391;SDS011;47261;52.892;5.738;2023-01-04T04:02:35;7.47;;;4.03;;
61391;SDS011;47261;52.892;5.738;2023-01-04T04:05:01;7.78;;;3.78;;
61391;SDS011;47261;52.892;5.738;2023-01-04T04:07:46;6.60;;;3.25;;
61391;SDS011;47261;52.892;5.738;2023-01-04T04:10:31;7.10;;;3.60;;
61391;SDS011;47261;52.892;5.738;2023-01-04T04:12:56;5.95;;;3.38;;
61391;SDS011;47261;52.892;5.738;2023-01-04T04:15:22;10.97;;;4.33;;
61391;SDS011;47261;52.892;5.738;2023-01-04T04:17:47;8.20;;;3.25;;
61391;SDS011;47261;52.892;5.738;2023-01-04T04:20:13;8.60;;;4.17;;
61391;SDS011;47261;52.892;5.738;2023-01-04T04:22:39;6.35;;;3.58;;
61391;SDS011;47261;52.892;5.738;2023-01-04T04:25:05;9.30;;;4.60;;
61391;SDS011;47261;52.892;5.738;2023-01-04T04:27:31;7.07;;;4.07;;
61391;SDS011;47261;52.892;5.738;2023-01-04T04:29:56;8.20;;;3.73;;
61391;SDS011;47261;52.892;5.738;2023-01-04T04:32:22;8.02;;;4.47;;
61391;SDS011;47261;52.892;5.738;2023-01-04T04:34:48;7.33;;;3.40;;
61391;SDS011;47261;52.892;5.738;2023-01-04T04:37:13;6.80;;;3.85;;
61391;SDS011;47261;52.892;5.738;2023-01-04T04:39:39;8.40;;;4.82;;
61391;SDS011;47261;52.892;5.738;2023-01-04T04:42:05;7.47;;;4.60;;
61391;SDS011;47261;52.892;5.738;2023-01-04T04:44:32;7.20;;;4.17;;
61391;SDS011;47261;52.892;5.738;2023-01-04T04:46:58;8.65;;;3.60;;
61391;SDS011;47261;52.892;5.738;2023-01-04T04:49:24;8.20;;;4.22;;
61391;SDS011;47261;52.892;5.738;2023-01-04T04:51:49;6.73;;;4.27;;
61391;SDS011;47261;52.892;5.738;2023-01-04T04:54:19;7.80;;;4.00;;
61391;SDS011;47261;52.892;5.738;2023-01-04T04:56:46;7.40;;;4.25;;
61391;SDS011;47261;52.892;5.738;2023-01-04T04:59:12;8.52;;;3.60;;
61391;SDS011;47261;52.892;5.738;2023-01-04T05:01:38;7.03;;;4.07;;
61391;SDS011;47261;52.892;5.738;2023-01-04T05:04:04;6.53;;;3.22;;
61391;SDS011;47261;52.892;5.738;2023-01-04T05:06:29;7.07;;;3.40;;
61391;SDS011;47261;52.892;5.738;2023-01-04T05:08:55;6.70;;;3.53;;
61391;SDS011;47261;52.892;5.738;2023-01-04T05:11:21;7.47;;;3.63;;
61391;SDS011;47261;52.892;5.738;2023-01-04T05:14:07;6.13;;;3.30;;
61391;SDS011;47261;52.892;5.738;2023-01-04T05:16:33;6.47;;;3.75;;
61391;SDS011;47261;52.892;5.738;2023-01-04T05:18:59;5.47;;;2.92;;
61391;SDS011;47261;52.892;5.738;2023-01-04T05:21:25;7.13;;;3.30;;
61391;SDS011;47261;52.892;5.738;2023-01-04T05:23:50;6.03;;;2.90;;
61391;SDS011;47261;52.892;5.738;2023-01-04T05:26:16;7.73;;;2.97;;
61391;SDS011;47261;52.892;5.738;2023-01-04T05:28:42;7.50;;;3.97;;
61391;SDS011;47261;52.892;5.738;2023-01-04T05:31:07;7.63;;;2.63;;
61391;SDS011;47261;52.892;5.738;2023-01-04T05:33:33;6.60;;;3.07;;
61391;SDS011;47261;52.892;5.738;2023-01-04T05:35:59;6.00;;;2.55;;
61391;SDS011;47261;52.892;5.738;2023-01-04T05:38:27;7.38;;;2.80;;
61391;SDS011;47261;52.892;5.738;2023-01-04T05:40:53;6.73;;;2.70;;
61391;SDS011;47261;52.892;5.738;2023-01-04T05:43:19;10.98;;;3.17;;
61391;SDS011;47261;52.892;5.738;2023-01-04T05:45:47;9.68;;;2.38;;
61391;SDS011;47261;52.892;5.738;2023-01-04T05:48:14;11.37;;;2.90;;
61391;SDS011;47261;52.892;5.738;2023-01-04T05:50:39;10.13;;;2.78;;
61391;SDS011;47261;52.892;5.738;2023-01-04T05:53:05;14.15;;;3.33;;
61391;SDS011;47261;52.892;5.738;2023-01-04T05:55:31;8.10;;;3.03;;
61391;SDS011;47261;52.892;5.738;2023-01-04T05:57:57;7.93;;;2.40;;
61391;SDS011;47261;52.892;5.738;2023-01-04T06:00:23;8.95;;;3.13;;
61391;SDS011;47261;52.892;5.738;2023-01-04T06:02:49;8.97;;;2.60;;
61391;SDS011;47261;52.892;5.738;2023-01-04T06:05:16;10.23;;;2.83;;
61391;SDS011;47261;52.892;5.738;2023-01-04T06:07:42;8.93;;;2.88;;
61391;SDS011;47261;52.892;5.738;2023-01-04T06:10:09;10.37;;;3.13;;
61391;SDS011;47261;52.892;5.738;2023-01-04T06:12:36;11.45;;;3.08;;
61391;SDS011;47261;52.892;5.738;2023-01-04T06:15:02;11.15;;;3.03;;
61391;SDS011;47261;52.892;5.738;2023-01-04T06:17:28;11.60;;;2.73;;
61391;SDS011;47261;52.892;5.738;2023-01-04T06:19:54;10.82;;;2.78;;
61391;SDS011;47261;52.892;5.738;2023-01-04T06:22:20;10.90;;;2.10;;
61391;SDS011;47261;52.892;5.738;2023-01-04T06:24:46;7.80;;;1.95;;
61391;SDS011;47261;52.892;5.738;2023-01-04T06:27:12;8.55;;;2.38;;
61391;SDS011;47261;52.892;5.738;2023-01-04T06:29:37;8.63;;;2.40;;
61391;SDS011;47261;52.892;5.738;2023-01-04T06:32:03;7.70;;;2.67;;
61391;SDS011;47261;52.892;5.738;2023-01-04T06:34:28;7.37;;;2.03;;
61391;SDS011;47261;52.892;5.738;2023-01-04T06:36:54;7.70;;;2.30;;
61391;SDS011;47261;52.892;5.738;2023-01-04T06:39:20;8.95;;;2.15;;
61391;SDS011;47261;52.892;5.738;2023-01-04T06:41:45;5.87;;;2.37;;
61391;SDS011;47261;52.892;5.738;2023-01-04T06:44:11;8.10;;;1.80;;
61391;SDS011;47261;52.892;5.738;2023-01-04T06:46:36;8.73;;;2.07;;
61391;SDS011;47261;52.892;5.738;2023-01-04T06:49:02;8.70;;;2.10;;
61391;SDS011;47261;52.892;5.738;2023-01-04T06:51:28;8.65;;;1.52;;
61391;SDS011;47261;52.892;5.738;2023-01-04T06:53:53;5.53;;;1.37;;
61391;SDS011;47261;52.892;5.738;2023-01-04T06:56:19;6.22;;;1.30;;
61391;SDS011;47261;52.892;5.738;2023-01-04T06:58:45;6.23;;;1.57;;
61391;SDS011;47261;52.892;5.738;2023-01-04T07:01:10;4.75;;;1.33;;
61391;SDS011;47261;52.892;5.738;2023-01-04T07:03:36;5.70;;;1.20;;
61391;SDS011;47261;52.892;5.738;2023-01-04T07:06:02;3.97;;;1.05;;
61391;SDS011;47261;52.892;5.738;2023-01-04T07:08:30;3.60;;;1.13;;
61391;SDS011;47261;52.892;5.738;2023-01-04T07:10:55;3.78;;;1.10;;
61391;SDS011;47261;52.892;5.738;2023-01-04T07:13:21;7.33;;;1.40;;
61391;SDS011;47261;52.892;5.738;2023-01-04T07:15:47;8.07;;;1.30;;
61391;SDS011;47261;52.892;5.738;2023-01-04T07:18:12;6.67;;;1.40;;
61391;SDS011;47261;52.892;5.738;2023-01-04T07:20:38;10.02;;;1.90;;
61391;SDS011;47261;52.892;5.738;2023-01-04T07:23:04;10.53;;;1.73;;
61391;SDS011;47261;52.892;5.738;2023-01-04T07:25:31;17.58;;;1.92;;
61391;SDS011;47261;52.892;5.738;2023-01-04T07:28:00;10.07;;;2.10;;
61391;SDS011;47261;52.892;5.738;2023-01-04T07:30:26;14.63;;;2.22;;
61391;SDS011;47261;52.892;5.738;2023-01-04T07:32:52;6.93;;;1.57;;
61391;SDS011;47261;52.892;5.738;2023-01-04T07:35:19;10.63;;;2.10;;
61391;SDS011;47261;52.892;5.738;2023-01-04T07:37:45;11.70;;;2.30;;
61391;SDS011;47261;52.892;5.738;2023-01-04T07:40:11;10.73;;;1.83;;
61391;SDS011;47261;52.892;5.738;2023-01-04T07:42:37;8.88;;;1.75;;
61391;SDS011;47261;52.892;5.738;2023-01-04T07:45:03;11.07;;;2.00;;
61391;SDS011;47261;52.892;5.738;2023-01-04T07:47:29;9.38;;;1.88;;
61391;SDS011;47261;52.892;5.738;2023-01-04T07:49:55;11.55;;;1.80;;
61391;SDS011;47261;52.892;5.738;2023-01-04T07:52:21;9.23;;;2.00;;
61391;SDS011;47261;52.892;5.738;2023-01-04T07:54:47;9.23;;;1.75;;
61391;SDS011;47261;52.892;5.738;2023-01-04T07:57:12;10.93;;;2.13;;
61391;SDS011;47261;52.892;5.738;2023-01-04T07:59:38;8.80;;;1.73;;
61391;SDS011;47261;52.892;5.738;2023-01-04T08:02:04;16.10;;;2.30;;
61391;SDS011;47261;52.892;5.738;2023-01-04T08:04:30;11.15;;;2.05;;
61391;SDS011;47261;52.892;5.738;2023-01-04T08:06:55;14.82;;;1.27;;
61391;SDS011;47261;52.892;5.738;2023-01-04T08:09:21;11.70;;;2.07;;
61391;SDS011;47261;52.892;5.738;2023-01-04T08:11:46;15.00;;;2.10;;
61391;SDS011;47261;52.892;5.738;2023-01-04T08:14:12;12.48;;;2.10;;
61391;SDS011;47261;52.892;5.738;2023-01-04T08:16:39;8.20;;;1.40;;
61391;SDS011;47261;52.892;5.738;2023-01-04T08:19:15;9.35;;;2.00;;
61391;SDS011;47261;52.892;5.738;2023-01-04T08:21:43;11.18;;;1.85;;
61391;SDS011;47261;52.892;5.738;2023-01-04T08:24:10;12.52;;;2.55;;
61391;SDS011;47261;52.892;5.738;2023-01-04T08:26:36;7.83;;;1.37;;
61391;SDS011;47261;52.892;5.738;2023-01-04T08:29:02;12.75;;;1.88;;
61391;SDS011;47261;52.892;5.738;2023-01-04T08:31:29;10.35;;;2.00;;
61391;SDS011;47261;52.892;5.738;2023-01-04T08:33:57;12.25;;;2.20;;
61391;SDS011;47261;52.892;5.738;2023-01-04T08:36:26;7.83;;;1.40;;
61391;SDS011;47261;52.892;5.738;2023-01-04T08:38:54;10.02;;;1.75;;
61391;SDS011;47261;52.892;5.738;2023-01-04T08:41:21;9.10;;;1.48;;
61391;SDS011;47261;52.892;5.738;2023-01-04T08:43:47;7.20;;;1.10;;
61391;SDS011;47261;52.892;5.738;2023-01-04T08:46:13;10.60;;;1.20;;
61391;SDS011;47261;52.892;5.738;2023-01-04T08:48:39;4.25;;;0.70;;
61391;SDS011;47261;52.892;5.738;2023-01-04T08:51:14;6.07;;;0.95;;
61391;SDS011;47261;52.892;5.738;2023-01-04T08:53:40;6.17;;;0.73;;
61391;SDS011;47261;52.892;5.738;2023-01-04T08:56:07;5.00;;;0.63;;
61391;SDS011;47261;52.892;5.738;2023-01-04T08:58:34;7.28;;;0.82;;
61391;SDS011;47261;52.892;5.738;2023-01-04T09:01:01;5.90;;;0.95;;
61391;SDS011;47261;52.892;5.738;2023-01-04T09:03:28;5.00;;;0.80;;
61391;SDS011;47261;52.892;5.738;2023-01-04T09:06:01;4.03;;;0.60;;
61391;SDS011;47261;52.892;5.738;2023-01-04T09:08:32;6.13;;;0.73;;
61391;SDS011;47261;52.892;5.738;2023-01-04T09:13:44;5.22;;;0.68;;
61391;SDS011;47261;52.892;5.738;2023-01-04T09:16:10;5.38;;;0.63;;
61391;SDS011;47261;52.892;5.738;2023-01-04T09:18:38;4.37;;;0.67;;
61391;SDS011;47261;52.892;5.738;2023-01-04T09:21:10;6.65;;;0.60;;
61391;SDS011;47261;52.892;5.738;2023-01-04T09:23:41;4.25;;;0.50;;
61391;SDS011;47261;52.892;5.738;2023-01-04T09:26:09;4.35;;;0.60;;
61391;SDS011;47261;52.892;5.738;2023-01-04T09:28:38;4.90;;;1.00;;
61391;SDS011;47261;52.892;5.738;2023-01-04T09:31:08;6.60;;;0.95;;
61391;SDS011;47261;52.892;5.738;2023-01-04T09:33:38;7.97;;;0.93;;
61391;SDS011;47261;52.892;5.738;2023-01-04T09:36:05;7.88;;;1.20;;
61391;SDS011;47261;52.892;5.738;2023-01-04T09:38:32;6.97;;;1.13;;
61391;SDS011;47261;52.892;5.738;2023-01-04T09:41:02;10.07;;;1.02;;
61391;SDS011;47261;52.892;5.738;2023-01-04T09:43:57;10.52;;;1.80;;
61391;SDS011;47261;52.892;5.738;2023-01-04T09:46:48;17.33;;;2.05;;
61391;SDS011;47261;52.892;5.738;2023-01-04T09:49:19;11.05;;;2.33;;
61391;SDS011;47261;52.892;5.738;2023-01-04T09:57:31;17.38;;;3.05;;
61391;SDS011;47261;52.892;5.738;2023-01-04T10:00:09;19.13;;;4.18;;
61391;SDS011;47261;52.892;5.738;2023-01-04T10:02:41;24.35;;;3.60;;
61391;SDS011;47261;52.892;5.738;2023-01-04T10:05:28;15.70;;;3.50;;
61391;SDS011;47261;52.892;5.738;2023-01-04T10:07:55;21.23;;;2.72;;
61391;SDS011;47261;52.892;5.738;2023-01-04T10:21:55;21.95;;;4.38;;
61391;SDS011;47261;52.892;5.738;2023-01-04T10:30:20;30.37;;;5.83;;
61391;SDS011;47261;52.892;5.738;2023-01-04T10:33:19;24.55;;;5.07;;
61391;SDS011;47261;52.892;5.738;2023-01-04T10:35:57;23.95;;;5.32;;
61391;SDS011;47261;52.892;5.738;2023-01-04T10:38:27;30.35;;;5.38;;
61391;SDS011;47261;52.892;5.738;2023-01-04T10:40:56;27.63;;;5.72;;
61391;SDS011;47261;52.892;5.738;2023-01-04T10:46:17;25.27;;;4.40;;
61391;SDS011;47261;52.892;5.738;2023-01-04T10:48:53;29.40;;;4.60;;
61391;SDS011;47261;52.892;5.738;2023-01-04T10:54:33;22.25;;;3.90;;
61391;SDS011;47261;52.892;5.738;2023-01-04T10:57:03;27.90;;;4.03;;
61391;SDS011;47261;52.892;5.738;2023-01-04T11:00:06;27.08;;;3.28;;
61391;SDS011;47261;52.892;5.738;2023-01-04T11:05:17;21.38;;;3.00;;
61391;SDS011;47261;52.892;5.738;2023-01-04T11:10:14;22.20;;;4.47;;
61391;SDS011;47261;52.892;5.738;2023-01-04T11:13:04;21.35;;;3.78;;
61391;SDS011;47261;52.892;5.738;2023-01-04T11:15:30;21.43;;;3.53;;
61391;SDS011;47261;52.892;5.738;2023-01-04T11:17:57;22.45;;;4.18;;
61391;SDS011;47261;52.892;5.738;2023-01-04T11:20:26;22.67;;;4.03;;
61391;SDS011;47261;52.892;5.738;2023-01-04T11:22:59;19.30;;;3.67;;
61391;SDS011;47261;52.892;5.738;2023-01-04T11:25:30;21.23;;;3.28;;
61391;SDS011;47261;52.892;5.738;2023-01-04T11:28:05;23.13;;;2.97;;
61391;SDS011;47261;52.892;5.738;2023-01-04T11:30:37;22.52;;;3.65;;
61391;SDS011;47261;52.892;5.738;2023-01-04T11:33:14;19.35;;;3.92;;
61391;SDS011;47261;52.892;5.738;2023-01-04T11:35:43;13.93;;;2.53;;
61391;SDS011;47261;52.892;5.738;2023-01-04T11:38:11;16.17;;;2.83;;
61391;SDS011;47261;52.892;5.738;2023-01-04T11:43:20;16.05;;;2.22;;
61391;SDS011;47261;52.892;5.738;2023-01-04T11:45:54;11.75;;;2.15;;
61391;SDS011;47261;52.892;5.738;2023-01-04T11:51:05;11.60;;;1.90;;
61391;SDS011;47261;52.892;5.738;2023-01-04T11:56:38;11.40;;;1.73;;
61391;SDS011;47261;52.892;5.738;2023-01-04T11:59:25;12.35;;;1.55;;
61391;SDS011;47261;52.892;5.738;2023-01-04T12:02:15;12.38;;;1.30;;
61391;SDS011;47261;52.892;5.738;2023-01-04T12:04:47;7.75;;;1.27;;
61391;SDS011;47261;52.892;5.738;2023-01-04T12:07:36;4.33;;;0.63;;
61391;SDS011;47261;52.892;5.738;2023-01-04T12:12:45;6.63;;;1.30;;
61391;SDS011;47261;52.892;5.738;2023-01-04T12:15:14;5.93;;;1.10;;
61391;SDS011;47261;52.892;5.738;2023-01-04T12:17:48;6.88;;;1.38;;
61391;SDS011;47261;52.892;5.738;2023-01-04T12:20:20;7.95;;;1.02;;
61391;SDS011;47261;52.892;5.738;2023-01-04T12:22:51;13.05;;;1.52;;
61391;SDS011;47261;52.892;5.738;2023-01-04T12:27:54;19.17;;;2.03;;
61391;SDS011;47261;52.892;5.738;2023-01-04T12:30:34;13.85;;;2.42;;
61391;SDS011;47261;52.892;5.738;2023-01-04T12:36:00;17.60;;;2.90;;
61391;SDS011;47261;52.892;5.738;2023-01-04T12:41:21;15.60;;;2.60;;
61391;SDS011;47261;52.892;5.738;2023-01-04T12:43:59;16.38;;;2.85;;
61391;SDS011;47261;52.892;5.738;2023-01-04T12:46:51;18.27;;;2.65;;
61391;SDS011;47261;52.892;5.738;2023-01-04T12:49:43;19.20;;;2.53;;
61391;SDS011;47261;52.892;5.738;2023-01-04T12:54:52;18.88;;;3.30;;
61391;SDS011;47261;52.892;5.738;2023-01-04T12:57:31;21.52;;;3.85;;
61391;SDS011;47261;52.892;5.738;2023-01-04T13:05:59;21.35;;;2.67;;
61391;SDS011;47261;52.892;5.738;2023-01-04T13:08:27;18.83;;;2.25;;
61391;SDS011;47261;52.892;5.738;2023-01-04T13:10:57;21.80;;;2.42;;
61391;SDS011;47261;52.892;5.738;2023-01-04T13:18:57;24.05;;;3.28;;
61391;SDS011;47261;52.892;5.738;2023-01-04T13:21:33;17.55;;;2.55;;
61391;SDS011;47261;52.892;5.738;2023-01-04T13:24:40;20.30;;;2.55;;
61391;SDS011;47261;52.892;5.738;2023-01-04T13:27:05;20.33;;;3.72;;
61391;SDS011;47261;52.892;5.738;2023-01-04T13:29:40;21.07;;;2.80;;
61391;SDS011;47261;52.892;5.738;2023-01-04T13:32:18;23.23;;;3.03;;
61391;SDS011;47261;52.892;5.738;2023-01-04T13:35:03;28.85;;;3.10;;
61391;SDS011;47261;52.892;5.738;2023-01-04T13:37:42;18.60;;;2.88;;
61391;SDS011;47261;52.892;5.738;2023-01-04T13:46:00;16.48;;;2.67;;
61391;SDS011;47261;52.892;5.738;2023-01-04T13:48:48;19.00;;;2.60;;
61391;SDS011;47261;52.892;5.738;2023-01-04T13:53:51;19.95;;;2.17;;
61391;SDS011;47261;52.892;5.738;2023-01-04T13:56:25;27.47;;;3.53;;
61391;SDS011;47261;52.892;5.738;2023-01-04T13:58:52;13.13;;;2.33;;
61391;SDS011;47261;52.892;5.738;2023-01-04T14:01:31;18.58;;;2.47;;
61391;SDS011;47261;52.892;5.738;2023-01-04T14:04:03;21.65;;;3.50;;
61391;SDS011;47261;52.892;5.738;2023-01-04T14:06:51;22.07;;;3.43;;
61391;SDS011;47261;52.892;5.738;2023-01-04T14:09:29;22.95;;;2.88;;
61391;SDS011;47261;52.892;5.738;2023-01-04T14:12:00;16.08;;;2.45;;
61391;SDS011;47261;52.892;5.738;2023-01-04T14:24:57;15.85;;;2.67;;
61391;SDS011;47261;52.892;5.738;2023-01-04T14:27:28;17.13;;;2.87;;
61391;SDS011;47261;52.892;5.738;2023-01-04T14:29:58;18.55;;;2.28;;
61391;SDS011;47261;52.892;5.738;2023-01-04T14:32:24;20.48;;;4.03;;
61391;SDS011;47261;52.892;5.738;2023-01-04T14:34:51;23.65;;;2.72;;
61391;SDS011;47261;52.892;5.738;2023-01-04T14:37:17;17.35;;;2.10;;
61391;SDS011;47261;52.892;5.738;2023-01-04T14:39:43;13.90;;;2.60;;
61391;SDS011;47261;52.892;5.738;2023-01-04T14:42:27;16.90;;;3.13;;
61391;SDS011;47261;52.892;5.738;2023-01-04T14:44:55;15.82;;;2.03;;
61391;SDS011;47261;52.892;5.738;2023-01-04T14:47:20;19.17;;;2.07;;
61391;SDS011;47261;52.892;5.738;2023-01-04T14:49:46;16.97;;;1.77;;
61391;SDS011;47261;52.892;5.738;2023-01-04T14:52:19;16.05;;;1.98;;
61391;SDS011;47261;52.892;5.738;2023-01-04T14:54:47;19.60;;;2.53;;
61391;SDS011;47261;52.892;5.738;2023-01-04T14:57:12;17.43;;;2.80;;
61391;SDS011;47261;52.892;5.738;2023-01-04T14:59:38;16.45;;;2.75;;
61391;SDS011;47261;52.892;5.738;2023-01-04T15:02:04;20.07;;;2.37;;
61391;SDS011;47261;52.892;5.738;2023-01-04T15:04:30;18.55;;;2.75;;
61391;SDS011;47261;52.892;5.738;2023-01-04T15:06:59;18.47;;;2.20;;
61391;SDS011;47261;52.892;5.738;2023-01-04T15:09:25;15.57;;;3.10;;
61391;SDS011;47261;52.892;5.738;2023-01-04T15:11:51;22.48;;;2.58;;
61391;SDS011;47261;52.892;5.738;2023-01-04T15:14:17;16.43;;;3.50;;
61391;SDS011;47261;52.892;5.738;2023-01-04T15:16:43;15.88;;;2.75;;
61391;SDS011;47261;52.892;5.738;2023-01-04T15:19:08;17.93;;;2.77;;
61391;SDS011;47261;52.892;5.738;2023-01-04T15:21:34;18.38;;;2.42;;
61391;SDS011;47261;52.892;5.738;2023-01-04T15:24:00;18.57;;;2.47;;
61391;SDS011;47261;52.892;5.738;2023-01-04T15:26:25;20.55;;;2.83;;
61391;SDS011;47261;52.892;5.738;2023-01-04T15:28:51;20.77;;;2.90;;
61391;SDS011;47261;52.892;5.738;2023-01-04T15:31:17;23.48;;;3.47;;
61391;SDS011;47261;52.892;5.738;2023-01-04T15:33:42;23.20;;;2.97;;
61391;SDS011;47261;52.892;5.738;2023-01-04T15:36:10;21.83;;;2.60;;
61391;SDS011;47261;52.892;5.738;2023-01-04T15:38:38;20.80;;;3.03;;
61391;SDS011;47261;52.892;5.738;2023-01-04T15:41:04;13.45;;;2.28;;
61391;SDS011;47261;52.892;5.738;2023-01-04T15:43:33;35.90;;;3.33;;
61391;SDS011;47261;52.892;5.738;2023-01-04T15:46:03;22.73;;;3.07;;
61391;SDS011;47261;52.892;5.738;2023-01-04T15:48:31;14.70;;;2.75;;
61391;SDS011;47261;52.892;5.738;2023-01-04T15:51:00;22.35;;;2.97;;
61391;SDS011;47261;52.892;5.738;2023-01-04T15:53:27;27.55;;;3.08;;
61391;SDS011;47261;52.892;5.738;2023-01-04T15:55:53;20.70;;;3.97;;
61391;SDS011;47261;52.892;5.738;2023-01-04T15:58:18;21.67;;;2.90;;
61391;SDS011;47261;52.892;5.738;2023-01-04T16:00:45;16.77;;;3.60;;
61391;SDS011;47261;52.892;5.738;2023-01-04T16:03:10;20.95;;;3.10;;
61391;SDS011;47261;52.892;5.738;2023-01-04T16:05:36;20.23;;;2.53;;
61391;SDS011;47261;52.892;5.738;2023-01-04T16:08:01;23.23;;;3.90;;
61391;SDS011;47261;52.892;5.738;2023-01-04T16:10:27;15.30;;;2.77;;
61391;SDS011;47261;52.892;5.738;2023-01-04T16:12:53;23.10;;;3.15;;
61391;SDS011;47261;52.892;5.738;2023-01-04T16:15:19;18.57;;;3.13;;
61391;SDS011;47261;52.892;5.738;2023-01-04T16:17:45;23.77;;;3.03;;
61391;SDS011;47261;52.892;5.738;2023-01-04T16:20:13;19.58;;;3.30;;
61391;SDS011;47261;52.892;5.738;2023-01-04T16:22:40;24.38;;;2.95;;
61391;SDS011;47261;52.892;5.738;2023-01-04T16:25:06;27.63;;;3.50;;
61391;SDS011;47261;52.892;5.738;2023-01-04T16:27:33;27.85;;;2.78;;
61391;SDS011;47261;52.892;5.738;2023-01-04T16:30:00;14.95;;;2.35;;
61391;SDS011;47261;52.892;5.738;2023-01-04T16:32:27;22.27;;;3.67;;
61391;SDS011;47261;52.892;5.738;2023-01-04T16:34:53;17.30;;;3.00;;
61391;SDS011;47261;52.892;5.738;2023-01-04T16:37:18;27.05;;;3.65;;
61391;SDS011;47261;52.892;5.738;2023-01-04T16:39:46;22.10;;;3.40;;
61391;SDS011;47261;52.892;5.738;2023-01-04T16:42:12;21.50;;;2.75;;
61391;SDS011;47261;52.892;5.738;2023-01-04T16:44:38;19.63;;;3.42;;
61391;SDS011;47261;52.892;5.738;2023-01-04T16:47:05;30.70;;;3.83;;
61391;SDS011;47261;52.892;5.738;2023-01-04T16:49:31;20.25;;;3.05;;
61391;SDS011;47261;52.892;5.738;2023-01-04T16:51:57;23.20;;;3.53;;
61391;SDS011;47261;52.892;5.738;2023-01-04T16:54:22;27.03;;;3.27;;
61391;SDS011;47261;52.892;5.738;2023-01-04T16:56:48;19.65;;;3.85;;
61391;SDS011;47261;52.892;5.738;2023-01-04T16:59:15;22.87;;;3.67;;
61391;SDS011;47261;52.892;5.738;2023-01-04T17:01:42;23.30;;;3.67;;
61391;SDS011;47261;52.892;5.738;2023-01-04T17:04:10;21.45;;;3.90;;